Time;durP1;ratioP1;P1;durP2;ratioP2;P2;SDS_P1;SDS_P2;PMS_P1;PMS_P2;Temp;Humidity;BMP_temperature;BMP_pressure;BME280_temperature;BME280_humidity;BME280_pressure;Samples;Min_cycle;Max_cycle;Signal;HPM_P1;HPM_P2
2023/08/17 00:02:11;;;;;;;;;;;22.60;69.90;;;;;;4171053;28;20026;-39
2023/08/17 00:04:52;;;;;;;;;;;22.60;70.80;;;;;;4130387;28;19944;-40
2023/08/17 00:07:34;;;;;;;;;;;22.60;70.00;;;;;;4141842;28;19933;-39
2023/08/17 00:10:15;;;;;;;;;;;22.60;70.00;;;;;;4154246;28;20297;-39
2023/08/17 00:12:56;;;;;;;;;;;22.60;70.90;;;;;;4139607;28;19933;-39
2023/08/17 00:15:36;;;;;;;;;;;22.60;70.00;;;;;;4156616;28;20128;-39
2023/08/17 00:18:17;;;;;;;;;;;22.60;69.90;;;;;;4154053;28;20474;-40
2023/08/17 00:20:58;;;;;;;;;;;22.60;70.10;;;;;;4154350;28;20429;-39
2023/08/17 00:23:40;;;;;;;;;;;22.50;70.10;;;;;;4135827;28;20438;-39
2023/08/17 00:26:21;;;;;;;;;;;22.60;70.30;;;;;;4154235;28;19932;-41
2023/08/17 00:29:02;;;;;;;;;;;22.60;70.30;;;;;;4154802;28;19936;-39
2023/08/17 00:31:43;;;;;;;;;;;22.50;70.20;;;;;;4141651;28;20292;-39
2023/08/17 00:34:24;;;;;;;;;;;22.60;70.40;;;;;;4137390;28;20391;-39
2023/08/17 00:37:05;;;;;;;;;;;22.60;70.50;;;;;;4170919;28;19936;-40
2023/08/17 00:39:47;;;;;;;;;;;22.50;71.30;;;;;;4171055;28;19943;-40
2023/08/17 00:42:28;;;;;;;;;;;22.50;70.50;;;;;;4171257;28;19935;-39
2023/08/17 00:45:09;;;;;;;;;;;22.50;70.50;;;;;;4140347;28;20007;-39
2023/08/17 00:47:50;;;;;;;;;;;22.50;70.60;;;;;;4154376;28;19955;-40
2023/08/17 00:50:31;;;;;;;;;;;22.50;70.60;;;;;;4154180;28;19952;-39
2023/08/17 00:53:13;;;;;;;;;;;22.50;70.70;;;;;;4154072;28;20395;-39
2023/08/17 00:55:55;;;;;;;;;;;22.50;70.70;;;;;;4125675;28;19936;-40
2023/08/17 00:58:36;;;;;;;;;;;22.50;70.70;;;;;;4145721;28;19936;-40
2023/08/17 01:01:21;;;;;;;;;;;22.50;70.60;;;;;;4135714;28;19964;-40
2023/08/17 01:04:02;;;;;;;;;;;22.50;70.70;;;;;;4151945;28;19986;-40
2023/08/17 01:06:43;;;;;;;;;;;22.40;70.70;;;;;;4154857;28;20015;-39
2023/08/17 01:09:23;;;;;;;;;;;22.50;70.90;;;;;;4153125;28;19932;-39
2023/08/17 01:12:09;;;;;;;;;;;22.50;70.90;;;;;;4153574;28;19971;-39
2023/08/17 01:14:53;;;;;;;;;;;22.40;70.80;;;;;;4151948;28;20492;-44
2023/08/17 01:17:34;;;;;;;;;;;22.50;71.70;;;;;;4162360;28;19932;-45
2023/08/17 01:20:16;;;;;;;;;;;22.50;70.80;;;;;;4162941;28;19955;-45
2023/08/17 01:23:05;;;;;;;;;;;22.50;70.90;;;;;;4151867;28;19932;-43
2023/08/17 01:25:45;;;;;;;;;;;22.40;70.90;;;;;;4151439;28;19936;-43
2023/08/17 01:28:26;;;;;;;;;;;22.40;70.90;;;;;;4140525;28;19936;-44
2023/08/17 01:31:12;;;;;;;;;;;22.40;70.90;;;;;;4153503;28;19933;-39
2023/08/17 01:33:57;;;;;;;;;;;22.40;70.90;;;;;;4157222;28;20317;-39
2023/08/17 01:36:43;;;;;;;;;;;22.40;70.90;;;;;;4153997;28;19932;-39
2023/08/17 01:39:28;;;;;;;;;;;22.40;71.00;;;;;;4154428;28;20297;-40
2023/08/17 01:42:12;;;;;;;;;;;22.40;71.10;;;;;;4144395;28;19959;-40
2023/08/17 01:44:56;;;;;;;;;;;22.40;71.90;;;;;;4153768;28;19932;-40
2023/08/17 01:47:37;;;;;;;;;;;22.40;71.10;;;;;;4153269;28;19936;-40
2023/08/17 01:50:18;;;;;;;;;;;22.30;71.00;;;;;;4153559;28;20415;-39
2023/08/17 01:52:59;;;;;;;;;;;22.40;71.10;;;;;;4140621;28;20376;-39
2023/08/17 01:55:41;;;;;;;;;;;22.30;71.00;;;;;;4153662;28;20038;-39
2023/08/17 01:58:22;;;;;;;;;;;22.30;70.90;;;;;;4152294;28;19932;-39
2023/08/17 02:01:03;;;;;;;;;;;22.30;70.90;;;;;;4128364;28;20320;-40
2023/08/17 02:03:43;;;;;;;;;;;22.30;71.10;;;;;;4121232;28;19936;-39
2023/08/17 02:06:24;;;;;;;;;;;22.30;71.10;;;;;;4138667;28;19931;-40
2023/08/17 02:09:05;;;;;;;;;;;22.30;71.10;;;;;;4168421;28;19935;-39
2023/08/17 02:11:47;;;;;;;;;;;22.30;71.20;;;;;;4148877;28;20363;-39
2023/08/17 02:14:28;;;;;;;;;;;22.30;71.20;;;;;;4146021;28;19936;-39
2023/08/17 02:17:09;;;;;;;;;;;22.30;71.20;;;;;;4157398;28;19935;-39
2023/08/17 02:19:50;;;;;;;;;;;22.30;71.30;;;;;;4139751;28;19932;-40
2023/08/17 02:22:30;;;;;;;;;;;22.30;71.30;;;;;;4152899;28;20063;-39
2023/08/17 02:25:11;;;;;;;;;;;22.30;71.30;;;;;;4169696;28;20067;-39
2023/08/17 02:27:54;;;;;;;;;;;22.20;71.20;;;;;;4146519;28;20399;-40
2023/08/17 02:30:34;;;;;;;;;;;22.20;71.30;;;;;;4158598;28;19936;-41
2023/08/17 02:33:15;;;;;;;;;;;22.20;71.20;;;;;;4161627;28;19936;-39
2023/08/17 02:35:56;;;;;;;;;;;22.20;71.30;;;;;;4170350;28;19958;-39
2023/08/17 02:38:37;;;;;;;;;;;22.20;71.30;;;;;;4164066;28;19932;-39
2023/08/17 02:41:18;;;;;;;;;;;22.20;71.40;;;;;;4156186;28;20403;-39
2023/08/17 02:44:00;;;;;;;;;;;22.20;72.30;;;;;;4156211;28;19932;-39
2023/08/17 02:46:40;;;;;;;;;;;22.20;71.20;;;;;;4156340;28;19936;-40
2023/08/17 02:49:21;;;;;;;;;;;22.20;71.40;;;;;;4158477;28;19932;-39
2023/08/17 02:52:03;;;;;;;;;;;22.20;71.50;;;;;;4154398;28;20055;-39
2023/08/17 02:54:43;;;;;;;;;;;22.20;71.50;;;;;;4140173;28;20307;-39
2023/08/17 02:57:24;;;;;;;;;;;22.20;71.60;;;;;;4159643;28;19932;-39
2023/08/17 03:00:08;;;;;;;;;;;22.20;71.60;;;;;;4135226;28;19979;-46
2023/08/17 03:02:49;;;;;;;;;;;22.10;71.60;;;;;;4152880;28;19931;-45
2023/08/17 03:05:30;;;;;;;;;;;22.10;71.60;;;;;;4172525;28;20013;-39
2023/08/17 03:08:10;;;;;;;;;;;22.10;71.70;;;;;;4168333;28;19940;-38
2023/08/17 03:10:51;;;;;;;;;;;22.10;71.70;;;;;;4143460;28;19931;-39
2023/08/17 03:13:32;;;;;;;;;;;22.10;71.80;;;;;;4139494;28;19940;-39
2023/08/17 03:16:14;;;;;;;;;;;22.10;71.80;;;;;;4158125;28;20688;-39
2023/08/17 03:18:55;;;;;;;;;;;22.10;72.40;;;;;;4143539;28;19936;-39
2023/08/17 03:21:36;;;;;;;;;;;22.10;71.80;;;;;;4161214;28;19933;-47
2023/08/17 03:24:17;;;;;;;;;;;22.00;71.80;;;;;;4166319;28;19990;-39
2023/08/17 03:26:58;;;;;;;;;;;22.00;71.90;;;;;;4153873;28;20303;-39
2023/08/17 03:29:40;;;;;;;;;;;22.00;72.00;;;;;;4155136;28;19936;-39
2023/08/17 03:32:22;;;;;;;;;;;22.00;71.90;;;;;;4121561;28;19937;-39
2023/08/17 03:35:03;;;;;;;;;;;22.00;72.00;;;;;;4154638;28;19932;-40
2023/08/17 03:37:45;;;;;;;;;;;22.00;72.00;;;;;;4155401;28;20614;-39
2023/08/17 03:40:27;;;;;;;;;;;22.00;72.00;;;;;;4138045;28;19932;-39
2023/08/17 03:43:07;;;;;;;;;;;22.00;72.00;;;;;;4171611;28;20288;-41
2023/08/17 03:45:49;;;;;;;;;;;22.00;72.10;;;;;;4158997;28;19935;-39
2023/08/17 03:48:31;;;;;;;;;;;22.00;72.10;;;;;;4158322;28;19935;-46
2023/08/17 03:51:12;;;;;;;;;;;22.00;73.10;;;;;;4177973;28;20284;-46
2023/08/17 03:53:53;;;;;;;;;;;22.00;72.30;;;;;;4143760;28;19936;-45
2023/08/17 03:56:34;;;;;;;;;;;21.90;72.20;;;;;;4140423;28;19940;-47
2023/08/17 03:59:15;;;;;;;;;;;21.90;73.00;;;;;;4140875;28;19932;-45
2023/08/17 04:01:56;;;;;;;;;;;21.90;72.00;;;;;;4152836;28;19932;-38
2023/08/17 04:04:38;;;;;;;;;;;21.90;72.20;;;;;;4153814;28;19943;-38
2023/08/17 04:07:21;;;;;;;;;;;21.90;72.30;;;;;;4165279;28;20406;-39
2023/08/17 04:10:02;;;;;;;;;;;21.90;72.30;;;;;;4154784;28;20397;-38
2023/08/17 04:12:43;;;;;;;;;;;21.90;72.30;;;;;;4138818;28;19932;-48
2023/08/17 04:15:24;;;;;;;;;;;21.90;72.20;;;;;;4138058;28;19933;-45
2023/08/17 04:18:05;;;;;;;;;;;21.90;72.20;;;;;;4138323;28;19936;-38
2023/08/17 04:20:47;;;;;;;;;;;21.90;72.30;;;;;;4125656;28;19933;-39
2023/08/17 04:23:29;;;;;;;;;;;21.90;72.40;;;;;;4164562;28;20091;-43
2023/08/17 04:26:10;;;;;;;;;;;21.90;72.40;;;;;;4141363;28;20006;-46
2023/08/17 04:28:51;;;;;;;;;;;21.90;72.50;;;;;;4163656;28;19936;-45
2023/08/17 04:31:32;;;;;;;;;;;21.80;72.50;;;;;;4137541;28;19976;-43
2023/08/17 04:34:15;;;;;;;;;;;21.90;72.70;;;;;;4153710;28;19932;-39
2023/08/17 04:36:57;;;;;;;;;;;21.80;72.70;;;;;;4137898;28;19936;-39
2023/08/17 04:39:38;;;;;;;;;;;21.80;72.70;;;;;;4125569;28;20072;-39
2023/08/17 04:42:20;;;;;;;;;;;21.80;72.70;;;;;;4126971;28;19932;-39
2023/08/17 04:45:01;;;;;;;;;;;21.80;72.80;;;;;;4148469;28;20383;-40
2023/08/17 04:47:42;;;;;;;;;;;21.80;72.80;;;;;;4157555;28;19966;-38
2023/08/17 04:50:23;;;;;;;;;;;21.80;72.70;;;;;;4154964;28;20006;-38
2023/08/17 04:53:08;;;;;;;;;;;21.80;72.80;;;;;;4164721;28;19932;-39
2023/08/17 04:55:48;;;;;;;;;;;21.80;72.90;;;;;;4141468;28;20004;-38
2023/08/17 04:58:32;;;;;;;;;;;21.80;73.00;;;;;;4141808;28;19932;-38
2023/08/17 05:01:13;;;;;;;;;;;21.80;73.00;;;;;;4141799;28;19951;-38
2023/08/17 05:03:54;;;;;;;;;;;21.80;73.10;;;;;;4138400;28;20122;-39
2023/08/17 05:06:38;;;;;;;;;;;21.80;73.20;;;;;;4141718;28;19932;-38
2023/08/17 05:09:20;;;;;;;;;;;21.80;73.10;;;;;;4153452;28;19936;-38
2023/08/17 05:12:01;;;;;;;;;;;21.80;73.20;;;;;;4137459;28;19932;-39
2023/08/17 05:14:42;;;;;;;;;;;21.70;73.20;;;;;;4144267;28;19936;-38
2023/08/17 05:17:23;;;;;;;;;;;21.80;73.40;;;;;;4141040;28;19936;-46
2023/08/17 05:20:08;;;;;;;;;;;21.80;73.70;;;;;;4125177;28;24203;-46
2023/08/17 05:22:49;;;;;;;;;;;21.80;73.90;;;;;;4155085;28;19931;-45
2023/08/17 05:25:32;;;;;;;;;;;21.80;73.80;;;;;;4140499;28;19956;-44
2023/08/17 05:28:14;;;;;;;;;;;21.80;73.70;;;;;;4145401;28;20383;-37
2023/08/17 05:30:56;;;;;;;;;;;21.80;73.80;;;;;;4154279;28;19978;-36
2023/08/17 05:33:40;;;;;;;;;;;21.80;73.70;;;;;;4147409;28;19932;-39
2023/08/17 05:36:21;;;;;;;;;;;21.80;73.70;;;;;;4129441;28;20736;-39
2023/08/17 05:39:03;;;;;;;;;;;21.80;73.90;;;;;;4154101;28;19932;-39
2023/08/17 05:41:46;;;;;;;;;;;21.80;74.00;;;;;;4152965;28;19932;-39
2023/08/17 05:44:27;;;;;;;;;;;21.80;74.00;;;;;;4153135;28;19955;-39
2023/08/17 05:47:07;;;;;;;;;;;21.90;74.20;;;;;;4153460;28;20390;-39
2023/08/17 05:49:48;;;;;;;;;;;21.90;74.30;;;;;;4141636;28;19936;-39
2023/08/17 05:52:28;;;;;;;;;;;21.90;75.20;;;;;;4153146;28;19948;-39
2023/08/17 05:55:09;;;;;;;;;;;21.90;74.40;;;;;;4150952;28;19931;-39
2023/08/17 05:57:52;;;;;;;;;;;21.90;74.30;;;;;;4170081;28;20306;-43
2023/08/17 06:00:32;;;;;;;;;;;22.00;74.40;;;;;;4166879;28;19949;-43
2023/08/17 06:03:13;;;;;;;;;;;21.90;74.20;;;;;;4140648;28;19936;-43
2023/08/17 06:05:55;;;;;;;;;;;22.00;74.10;;;;;;4153694;28;20034;-45
2023/08/17 06:08:35;;;;;;;;;;;22.10;74.00;;;;;;4153907;28;19948;-48
2023/08/17 06:11:16;;;;;;;;;;;22.10;74.60;;;;;;4137540;28;19948;-47
2023/08/17 06:14:00;;;;;;;;;;;22.10;73.60;;;;;;4156864;28;19932;-45
2023/08/17 06:16:41;;;;;;;;;;;22.20;73.50;;;;;;4156224;28;20387;-45
2023/08/17 06:19:21;;;;;;;;;;;22.20;73.40;;;;;;4156584;28;19936;-44
2023/08/17 06:22:02;;;;;;;;;;;22.20;73.20;;;;;;4154041;28;20396;-44
2023/08/17 06:24:43;;;;;;;;;;;22.20;73.20;;;;;;4157226;28;19958;-44
2023/08/17 06:27:23;;;;;;;;;;;22.20;73.10;;;;;;4143421;28;20510;-44
2023/08/17 06:30:07;;;;;;;;;;;22.20;73.10;;;;;;4156557;28;19992;-39
2023/08/17 06:32:48;;;;;;;;;;;22.20;72.80;;;;;;4155801;28;19963;-40
2023/08/17 06:35:29;;;;;;;;;;;22.20;72.60;;;;;;4155713;28;20055;-44
2023/08/17 06:38:10;;;;;;;;;;;22.10;72.80;;;;;;4141618;28;20084;-45
2023/08/17 06:40:50;;;;;;;;;;;22.10;72.50;;;;;;4156123;28;19947;-43
2023/08/17 06:43:31;;;;;;;;;;;22.00;72.90;;;;;;4155717;28;20010;-47
2023/08/17 06:46:13;;;;;;;;;;;22.00;72.90;;;;;;4152047;28;19988;-47
2023/08/17 06:48:54;;;;;;;;;;;21.90;73.00;;;;;;4163899;28;19995;-44
2023/08/17 06:51:34;;;;;;;;;;;21.90;72.90;;;;;;4159509;28;19963;-44
2023/08/17 06:54:16;;;;;;;;;;;21.90;73.10;;;;;;4162888;28;20001;-45
2023/08/17 06:56:56;;;;;;;;;;;21.80;74.00;;;;;;4162439;28;19932;-40
2023/08/17 06:59:37;;;;;;;;;;;21.80;73.30;;;;;;4148574;28;19937;-40
2023/08/17 07:02:20;;;;;;;;;;;21.70;73.40;;;;;;4127314;28;19956;-39
2023/08/17 07:05:01;;;;;;;;;;;21.70;73.50;;;;;;4137107;28;19933;-48
2023/08/17 07:07:43;;;;;;;;;;;21.70;73.60;;;;;;4139328;28;19933;-39
2023/08/17 07:10:24;;;;;;;;;;;21.70;73.70;;;;;;4141322;28;19933;-45
2023/08/17 07:13:05;;;;;;;;;;;21.70;73.70;;;;;;4160085;28;20418;-43
2023/08/17 07:15:45;;;;;;;;;;;21.70;74.30;;;;;;4152108;28;20059;-42
2023/08/17 07:18:28;;;;;;;;;;;21.70;75.00;;;;;;4154939;28;19944;-40
2023/08/17 07:21:09;;;;;;;;;;;21.70;74.10;;;;;;4142032;28;20391;-39
2023/08/17 07:23:50;;;;;;;;;;;21.70;74.10;;;;;;4164001;28;19935;-40
2023/08/17 07:26:31;;;;;;;;;;;21.70;74.10;;;;;;4154051;28;19947;-47
2023/08/17 07:29:12;;;;;;;;;;;21.70;74.10;;;;;;4152685;28;19936;-48
2023/08/17 07:31:54;;;;;;;;;;;21.70;74.00;;;;;;4149184;28;20023;-46
2023/08/17 07:34:36;;;;;;;;;;;21.70;74.00;;;;;;4135286;28;20392;-46
2023/08/17 07:37:17;;;;;;;;;;;21.70;74.00;;;;;;4154335;28;19936;-50
2023/08/17 07:39:58;;;;;;;;;;;21.60;73.70;;;;;;4169681;28;20288;-47
2023/08/17 07:42:39;;;;;;;;;;;21.70;74.40;;;;;;4171726;28;20395;-50
2023/08/17 07:45:20;;;;;;;;;;;21.70;73.40;;;;;;4171168;28;19936;-50
2023/08/17 07:48:00;;;;;;;;;;;21.70;73.20;;;;;;4145768;28;20059;-50
2023/08/17 07:50:42;;;;;;;;;;;21.70;73.10;;;;;;4152555;28;20008;-40
2023/08/17 07:53:23;;;;;;;;;;;21.60;73.10;;;;;;4154485;28;19932;-40
2023/08/17 07:56:03;;;;;;;;;;;21.60;73.00;;;;;;4152711;28;20060;-40
2023/08/17 07:58:44;;;;;;;;;;;21.60;73.00;;;;;;4154939;28;19979;-40
2023/08/17 08:01:25;;;;;;;;;;;21.60;73.00;;;;;;4154629;28;19975;-40
2023/08/17 08:04:06;;;;;;;;;;;21.60;73.00;;;;;;4171743;28;19940;-46
2023/08/17 08:06:48;;;;;;;;;;;21.60;72.90;;;;;;4171130;28;19968;-39
2023/08/17 08:09:29;;;;;;;;;;;21.60;73.00;;;;;;4170048;28;20498;-40
2023/08/17 08:12:11;;;;;;;;;;;21.60;73.00;;;;;;4171312;28;19936;-40
2023/08/17 08:14:51;;;;;;;;;;;21.60;72.90;;;;;;4170742;28;19974;-39
2023/08/17 08:17:32;;;;;;;;;;;21.60;73.80;;;;;;4154945;28;19936;-39
2023/08/17 08:20:13;;;;;;;;;;;21.60;72.90;;;;;;4155118;28;20408;-39
2023/08/17 08:22:55;;;;;;;;;;;21.60;72.90;;;;;;4136584;28;19932;-40
2023/08/17 08:25:36;;;;;;;;;;;21.60;73.00;;;;;;4140212;28;20395;-39
2023/08/17 08:28:23;;;;;;;;;;;21.60;72.80;;;;;;4160865;23;20393;-47
2023/08/17 08:31:04;;;;;;;;;;;21.60;72.90;;;;;;4122390;28;20313;-46
2023/08/17 08:33:45;;;;;;;;;;;21.60;73.00;;;;;;4106583;28;19933;-49
2023/08/17 08:36:25;;;;;;;;;;;21.60;72.90;;;;;;4105992;28;20072;-49
2023/08/17 08:39:08;;;;;;;;;;;21.70;73.00;;;;;;4106114;28;19975;-47
2023/08/17 08:41:49;;;;;;;;;;;21.60;73.80;;;;;;4108940;28;20455;-48
2023/08/17 08:44:30;;;;;;;;;;;21.60;72.90;;;;;;4121338;28;19937;-47
2023/08/17 08:47:11;;;;;;;;;;;21.60;72.80;;;;;;4121435;28;19932;-49
2023/08/17 08:49:57;;;;;;;;;;;21.60;72.80;;;;;;4121897;28;19933;-48
2023/08/17 08:52:43;;;;;;;;;;;21.60;72.80;;;;;;4108161;28;19984;-50
2023/08/17 08:55:27;;;;;;;;;;;21.60;72.80;;;;;;4105424;28;19932;-50
2023/08/17 08:58:08;;;;;;;;;;;21.60;72.80;;;;;;4106273;28;19937;-49
2023/08/17 09:00:49;;;;;;;;;;;21.60;72.80;;;;;;4105067;28;19936;-51
2023/08/17 09:03:31;;;;;;;;;;;21.70;72.90;;;;;;4106456;28;19933;-50
2023/08/17 09:06:12;;;;;;;;;;;21.60;72.80;;;;;;4105797;28;19933;-48
2023/08/17 09:08:53;;;;;;;;;;;21.70;72.80;;;;;;4106354;28;19934;-49
2023/08/17 09:11:35;;;;;;;;;;;21.70;72.80;;;;;;4106375;28;20694;-39
2023/08/17 09:14:16;;;;;;;;;;;21.70;73.70;;;;;;4106581;28;20349;-39
2023/08/17 09:16:58;;;;;;;;;;;21.70;72.80;;;;;;4105924;28;19933;-39
2023/08/17 09:19:40;;;;;;;;;;;21.80;72.80;;;;;;4106487;28;19948;-39
2023/08/17 09:22:25;;;;;;;;;;;21.80;73.70;;;;;;4117032;28;19980;-39
2023/08/17 09:25:07;;;;;;;;;;;21.80;72.90;;;;;;4132395;28;19972;-40
2023/08/17 09:27:49;;;;;;;;;;;21.90;72.80;;;;;;4121610;28;20064;-39
2023/08/17 09:30:30;;;;;;;;;;;21.80;72.60;;;;;;4122325;28;19933;-39
2023/08/17 09:33:11;;;;;;;;;;;21.80;72.60;;;;;;4115445;28;20007;-39
2023/08/17 09:35:52;;;;;;;;;;;21.80;72.50;;;;;;4105807;28;20372;-45
2023/08/17 09:38:38;;;;;;;;;;;21.90;73.50;;;;;;4105560;28;19937;-47
2023/08/17 09:41:19;;;;;;;;;;;21.90;72.60;;;;;;4120862;28;19968;-45
2023/08/17 09:44:01;;;;;;;;;;;21.90;72.60;;;;;;4121444;28;20012;-49
2023/08/17 09:46:43;;;;;;;;;;;22.00;72.70;;;;;;4121593;28;19989;-48
2023/08/17 09:49:24;;;;;;;;;;;21.90;72.60;;;;;;4125302;28;19936;-50
2023/08/17 09:52:05;;;;;;;;;;;22.00;72.60;;;;;;4112697;28;19971;-48
2023/08/17 09:54:47;;;;;;;;;;;22.00;72.60;;;;;;4108949;28;19984;-50
2023/08/17 09:57:28;;;;;;;;;;;22.00;72.60;;;;;;4110779;28;19944;-48
2023/08/17 10:00:11;;;;;;;;;;;22.00;72.60;;;;;;4124708;28;19987;-46
2023/08/17 10:02:52;;;;;;;;;;;22.00;72.60;;;;;;4125133;28;20396;-40
2023/08/17 10:05:36;;;;;;;;;;;22.00;72.60;;;;;;4124863;28;19937;-40
2023/08/17 10:08:20;;;;;;;;;;;22.00;72.60;;;;;;4116528;28;20397;-39
2023/08/17 10:11:03;;;;;;;;;;;22.00;72.70;;;;;;4109055;28;20062;-40
2023/08/17 10:13:47;;;;;;;;;;;22.00;72.60;;;;;;4107885;28;19937;-39
2023/08/17 10:16:33;;;;;;;;;;;22.10;72.70;;;;;;4108519;28;19933;-40
2023/08/17 10:19:16;;;;;;;;;;;22.10;73.60;;;;;;4110482;28;20289;-39
2023/08/17 10:22:02;;;;;;;;;;;22.10;72.70;;;;;;4108503;28;19934;-40
2023/08/17 10:24:43;;;;;;;;;;;22.10;72.70;;;;;;4108721;28;19937;-39
2023/08/17 10:27:27;;;;;;;;;;;22.10;72.70;;;;;;4108867;28;19941;-39
2023/08/17 10:30:09;;;;;;;;;;;22.10;72.70;;;;;;4124021;28;19952;-48
2023/08/17 10:32:50;;;;;;;;;;;22.10;72.80;;;;;;4115943;28;20408;-48
2023/08/17 10:35:32;;;;;;;;;;;22.10;72.90;;;;;;4108817;28;20245;-47
2023/08/17 10:38:13;;;;;;;;;;;22.20;72.90;;;;;;4108853;28;19937;-51
2023/08/17 10:41:09;;;;;;;;;;;22.20;72.90;;;;;;4108332;28;19955;-48
2023/08/17 10:43:57;;;;;;;;;;;22.20;72.90;;;;;;4107000;28;19952;-51
2023/08/17 10:46:39;;;;;;;;;;;22.30;72.90;;;;;;4108363;28;20458;-47
2023/08/17 10:49:27;;;;;;;;;;;22.30;72.90;;;;;;4107398;28;20008;-48
2023/08/17 10:52:08;;;;;;;;;;;22.30;73.00;;;;;;4107054;28;20266;-51
2023/08/17 10:54:49;;;;;;;;;;;22.40;74.00;;;;;;4107834;28;19933;-51
2023/08/17 10:57:30;;;;;;;;;;;22.40;72.80;;;;;;4107582;28;20004;-39
2023/08/17 11:00:20;;;;;;;;;;;22.40;72.70;;;;;;4108191;28;19945;-40
2023/08/17 11:03:02;;;;;;;;;;;22.40;72.70;;;;;;4114781;28;19937;-47
2023/08/17 11:05:46;;;;;;;;;;;22.40;72.60;;;;;;4123069;28;19937;-46
2023/08/17 11:08:29;;;;;;;;;;;22.50;72.60;;;;;;4124063;28;19936;-51
2023/08/17 11:11:11;;;;;;;;;;;22.50;72.60;;;;;;4122619;28;19933;-49
2023/08/17 11:13:53;;;;;;;;;;;22.60;73.50;;;;;;4107401;28;19993;-49
2023/08/17 11:16:37;;;;;;;;;;;22.60;72.60;;;;;;4108228;28;20389;-48
2023/08/17 11:19:18;;;;;;;;;;;22.60;72.60;;;;;;4107795;28;19933;-39
2023/08/17 11:22:01;;;;;;;;;;;22.60;72.50;;;;;;4107503;28;19932;-44
2023/08/17 11:24:42;;;;;;;;;;;22.60;72.50;;;;;;4108373;28;20016;-40
2023/08/17 11:27:24;;;;;;;;;;;22.70;72.50;;;;;;4106076;28;19937;-40
2023/08/17 11:30:06;;;;;;;;;;;22.70;72.60;;;;;;4117771;28;19937;-39
2023/08/17 11:32:48;;;;;;;;;;;22.70;72.50;;;;;;4106967;28;20004;-40
2023/08/17 11:35:34;;;;;;;;;;;22.70;72.50;;;;;;4117390;28;20064;-39
2023/08/17 11:38:16;;;;;;;;;;;22.70;72.50;;;;;;4133993;28;19933;-39
2023/08/17 11:40:56;;;;;;;;;;;22.70;72.40;;;;;;4134068;28;20270;-39
2023/08/17 11:43:37;;;;;;;;;;;22.70;72.40;;;;;;4133989;28;20064;-39
2023/08/17 11:46:18;;;;;;;;;;;22.80;72.40;;;;;;4108737;28;19932;-40
2023/08/17 11:48:59;;;;;;;;;;;22.80;72.50;;;;;;4117520;28;20000;-40
2023/08/17 11:51:40;;;;;;;;;;;22.80;72.60;;;;;;4107401;28;19937;-39
2023/08/17 11:54:24;;;;;;;;;;;22.90;72.50;;;;;;4107674;28;19980;-40
2023/08/17 11:57:05;;;;;;;;;;;22.90;73.30;;;;;;4109400;28;19991;-39
2023/08/17 11:59:46;;;;;;;;;;;22.90;72.20;;;;;;4123200;28;19948;-40
2023/08/17 12:02:27;;;;;;;;;;;22.90;72.20;;;;;;4121875;28;19941;-40
2023/08/17 12:05:09;;;;;;;;;;;23.00;73.00;;;;;;4122743;28;20289;-40
2023/08/17 12:07:50;;;;;;;;;;;23.00;72.10;;;;;;4113773;28;20085;-40
2023/08/17 12:10:33;;;;;;;;;;;23.00;72.10;;;;;;4106205;28;19937;-40
2023/08/17 12:13:14;;;;;;;;;;;23.00;73.10;;;;;;4106915;28;19937;-40
2023/08/17 12:15:57;;;;;;;;;;;23.00;72.10;;;;;;4106614;28;19932;-40
2023/08/17 12:18:38;;;;;;;;;;;23.00;72.10;;;;;;4107144;28;19936;-40
2023/08/17 12:21:20;;;;;;;;;;;23.10;72.10;;;;;;4106269;28;19933;-40
2023/08/17 12:24:04;;;;;;;;;;;23.10;72.20;;;;;;4106940;28;20394;-40
2023/08/17 12:26:47;;;;;;;;;;;23.00;72.10;;;;;;4106939;28;20073;-40
2023/08/17 12:29:27;;;;;;;;;;;23.10;72.20;;;;;;4106681;28;19949;-40
2023/08/17 12:32:08;;;;;;;;;;;23.10;72.20;;;;;;4106056;28;19980;-41
2023/08/17 12:34:49;;;;;;;;;;;23.10;72.20;;;;;;4106680;28;20065;-39
2023/08/17 12:37:29;;;;;;;;;;;23.10;72.40;;;;;;4118015;28;19975;-40
2023/08/17 12:40:10;;;;;;;;;;;23.10;72.30;;;;;;4132735;28;19933;-41
2023/08/17 12:42:53;;;;;;;;;;;23.10;72.40;;;;;;4122660;28;22102;-39
2023/08/17 12:45:33;;;;;;;;;;;23.10;72.40;;;;;;4122793;28;19933;-40
2023/08/17 12:48:14;;;;;;;;;;;23.10;72.40;;;;;;4116781;28;20093;-48
2023/08/17 12:50:55;;;;;;;;;;;23.10;72.50;;;;;;4105212;28;20297;-52
2023/08/17 12:53:36;;;;;;;;;;;23.10;72.40;;;;;;4105120;28;20392;-47
2023/08/17 12:56:17;;;;;;;;;;;23.10;72.30;;;;;;4114128;28;20293;-50
2023/08/17 12:58:59;;;;;;;;;;;23.10;72.40;;;;;;4120882;28;19933;-46
2023/08/17 13:01:42;;;;;;;;;;;23.10;73.30;;;;;;4121535;28;19936;-39
2023/08/17 13:04:23;;;;;;;;;;;23.10;72.40;;;;;;4106205;28;20397;-40
2023/08/17 13:07:04;;;;;;;;;;;23.10;72.50;;;;;;4105321;28;20444;-40
2023/08/17 13:09:46;;;;;;;;;;;23.10;72.50;;;;;;4121133;28;19937;-41
2023/08/17 13:12:27;;;;;;;;;;;23.10;72.60;;;;;;4122391;28;19940;-42
2023/08/17 13:15:10;;;;;;;;;;;23.10;73.00;;;;;;4117580;28;19937;-40
2023/08/17 13:17:50;;;;;;;;;;;23.10;73.00;;;;;;4124270;28;19980;-39
2023/08/17 13:20:31;;;;;;;;;;;23.10;72.90;;;;;;4122169;28;19936;-39
2023/08/17 13:23:13;;;;;;;;;;;23.10;72.90;;;;;;4121682;28;19933;-40
2023/08/17 13:25:54;;;;;;;;;;;23.10;72.90;;;;;;4119165;28;19945;-39
2023/08/17 13:28:35;;;;;;;;;;;23.10;73.00;;;;;;4122258;28;19933;-39
2023/08/17 13:31:17;;;;;;;;;;;23.10;73.00;;;;;;4131582;28;19937;-39
2023/08/17 13:34:04;;;;;;;;;;;23.10;73.00;;;;;;4121749;28;19933;-39
2023/08/17 13:36:45;;;;;;;;;;;23.10;72.90;;;;;;4121343;28;19992;-39
2023/08/17 13:39:26;;;;;;;;;;;23.10;73.10;;;;;;4121308;28;19939;-47
2023/08/17 13:42:07;;;;;;;;;;;23.10;73.10;;;;;;4122044;28;20040;-45
2023/08/17 13:44:47;;;;;;;;;;;23.10;73.10;;;;;;4121616;28;20689;-47
2023/08/17 13:47:29;;;;;;;;;;;23.10;73.20;;;;;;4106005;28;19968;-44
2023/08/17 13:50:10;;;;;;;;;;;23.00;73.10;;;;;;4105921;28;19933;-46
2023/08/17 13:52:51;;;;;;;;;;;23.00;73.20;;;;;;4106186;28;19934;-44
2023/08/17 13:55:32;;;;;;;;;;;23.00;74.20;;;;;;4106054;28;20405;-45
2023/08/17 13:58:13;;;;;;;;;;;23.00;73.40;;;;;;4112047;28;19932;-43
2023/08/17 14:00:54;;;;;;;;;;;23.00;73.40;;;;;;4121866;28;19937;-43
2023/08/17 14:03:36;;;;;;;;;;;23.00;73.40;;;;;;4122314;28;20008;-43
2023/08/17 14:06:17;;;;;;;;;;;23.00;73.50;;;;;;4121356;28;19936;-46
2023/08/17 14:08:58;;;;;;;;;;;23.00;73.50;;;;;;4121834;28;19933;-47
2023/08/17 14:11:39;;;;;;;;;;;23.00;73.60;;;;;;4120020;28;19936;-44
2023/08/17 14:14:20;;;;;;;;;;;22.90;73.60;;;;;;4121676;28;19937;-45
2023/08/17 14:17:02;;;;;;;;;;;22.90;73.70;;;;;;4120844;28;19932;-45
2023/08/17 14:19:44;;;;;;;;;;;22.90;73.70;;;;;;4116596;28;19984;-39
2023/08/17 14:22:26;;;;;;;;;;;22.90;73.90;;;;;;4121605;28;19998;-38
2023/08/17 14:25:07;;;;;;;;;;;22.90;73.90;;;;;;4123116;28;19936;-38
2023/08/17 14:27:48;;;;;;;;;;;22.90;73.90;;;;;;4105983;28;19937;-39
2023/08/17 14:30:28;;;;;;;;;;;22.90;74.00;;;;;;4104596;28;19979;-40
2023/08/17 14:33:09;;;;;;;;;;;22.90;74.30;;;;;;4116889;28;19992;-38
2023/08/17 14:35:51;;;;;;;;;;;22.90;74.50;;;;;;4123403;28;20032;-37
2023/08/17 14:38:35;;;;;;;;;;;22.80;74.40;;;;;;4122880;28;20015;-38
2023/08/17 14:41:16;;;;;;;;;;;22.80;74.50;;;;;;4127301;28;19932;-39
2023/08/17 14:43:57;;;;;;;;;;;22.80;74.60;;;;;;4118786;28;20312;-38
2023/08/17 14:46:42;;;;;;;;;;;22.80;74.70;;;;;;4124359;28;19936;-38
2023/08/17 14:49:23;;;;;;;;;;;22.80;74.70;;;;;;4124435;28;19979;-38
2023/08/17 14:52:08;;;;;;;;;;;22.80;74.60;;;;;;4123967;28;19936;-39
2023/08/17 14:54:48;;;;;;;;;;;22.80;74.50;;;;;;4122398;28;19932;-44
2023/08/17 14:57:30;;;;;;;;;;;22.80;75.40;;;;;;4124029;28;20396;-43
2023/08/17 15:00:12;;;;;;;;;;;22.80;74.60;;;;;;4123568;28;19980;-44
2023/08/17 15:02:57;;;;;;;;;;;22.80;74.60;;;;;;4122662;28;19987;-42
2023/08/17 15:05:38;;;;;;;;;;;22.80;74.60;;;;;;4133579;28;20011;-42
2023/08/17 15:08:20;;;;;;;;;;;22.80;74.70;;;;;;4124602;28;19932;-47
2023/08/17 15:11:02;;;;;;;;;;;22.80;74.80;;;;;;4123297;28;19933;-43
2023/08/17 15:13:43;;;;;;;;;;;22.80;74.90;;;;;;4107822;28;19933;-38
2023/08/17 15:16:27;;;;;;;;;;;22.80;75.00;;;;;;4112135;28;19934;-39
2023/08/17 15:19:08;;;;;;;;;;;22.80;75.10;;;;;;4108650;28;20123;-45
2023/08/17 15:21:49;;;;;;;;;;;22.80;75.30;;;;;;4120926;28;19945;-49
2023/08/17 15:24:31;;;;;;;;;;;22.80;75.50;;;;;;4115776;28;20300;-43
2023/08/17 15:27:12;;;;;;;;;;;22.80;75.80;;;;;;4122014;28;20087;-39
2023/08/17 15:29:52;;;;;;;;;;;22.70;75.50;;;;;;4121736;28;19937;-38
2023/08/17 15:32:33;;;;;;;;;;;22.80;75.50;;;;;;4122389;28;19944;-38
2023/08/17 15:35:14;;;;;;;;;;;22.70;75.40;;;;;;4114686;28;19936;-39
2023/08/17 15:37:55;;;;;;;;;;;22.80;75.60;;;;;;4119295;28;19937;-38
2023/08/17 15:40:37;;;;;;;;;;;22.80;75.70;;;;;;4115692;28;19933;-38